sensor_id;sensor_type;location;lat;lon;timestamp;P1;durP1;ratioP1;P2;durP2;ratioP2
52866;SDS011;38739;53.324;6.862;2023-01-01T00:00:01;40.67;;;25.52;;
52866;SDS011;38739;53.324;6.862;2023-01-01T00:02:28;33.38;;;19.27;;
52866;SDS011;38739;53.324;6.862;2023-01-01T00:04:54;40.53;;;23.70;;
52866;SDS011;38739;53.324;6.862;2023-01-01T00:07:20;54.38;;;37.88;;
52866;SDS011;38739;53.324;6.862;2023-01-01T00:09:45;44.60;;;24.92;;
52866;SDS011;38739;53.324;6.862;2023-01-01T00:12:33;35.65;;;19.65;;
52866;SDS011;38739;53.324;6.862;2023-01-01T00:14:58;30.92;;;15.18;;
52866;SDS011;38739;53.324;6.862;2023-01-01T00:17:25;35.72;;;20.00;;
52866;SDS011;38739;53.324;6.862;2023-01-01T00:19:51;32.00;;;13.15;;
52866;SDS011;38739;53.324;6.862;2023-01-01T00:22:16;23.30;;;11.27;;
52866;SDS011;38739;53.324;6.862;2023-01-01T00:24:42;31.25;;;17.58;;
52866;SDS011;38739;53.324;6.862;2023-01-01T00:27:08;25.83;;;13.15;;
52866;SDS011;38739;53.324;6.862;2023-01-01T00:29:33;25.00;;;12.10;;
52866;SDS011;38739;53.324;6.862;2023-01-01T00:31:59;33.53;;;17.65;;
52866;SDS011;38739;53.324;6.862;2023-01-01T00:34:25;36.40;;;18.02;;
52866;SDS011;38739;53.324;6.862;2023-01-01T00:36:50;50.72;;;27.42;;
52866;SDS011;38739;53.324;6.862;2023-01-01T00:39:16;38.17;;;20.17;;
52866;SDS011;38739;53.324;6.862;2023-01-01T00:41:42;46.15;;;21.77;;
52866;SDS011;38739;53.324;6.862;2023-01-01T00:44:07;36.65;;;18.83;;
52866;SDS011;38739;53.324;6.862;2023-01-01T00:46:33;33.72;;;19.50;;
52866;SDS011;38739;53.324;6.862;2023-01-01T00:48:59;33.35;;;17.80;;
52866;SDS011;38739;53.324;6.862;2023-01-01T00:51:25;32.55;;;15.55;;
52866;SDS011;38739;53.324;6.862;2023-01-01T00:53:50;33.08;;;16.52;;
52866;SDS011;38739;53.324;6.862;2023-01-01T00:56:16;37.78;;;19.75;;
52866;SDS011;38739;53.324;6.862;2023-01-01T00:58:42;28.08;;;16.00;;
52866;SDS011;38739;53.324;6.862;2023-01-01T01:01:09;31.35;;;15.85;;
52866;SDS011;38739;53.324;6.862;2023-01-01T01:03:36;27.98;;;12.40;;
52866;SDS011;38739;53.324;6.862;2023-01-01T01:08:29;25.05;;;13.00;;
52866;SDS011;38739;53.324;6.862;2023-01-01T01:11:07;26.42;;;13.25;;
52866;SDS011;38739;53.324;6.862;2023-01-01T01:13:35;25.80;;;13.27;;
52866;SDS011;38739;53.324;6.862;2023-01-01T01:16:06;30.60;;;15.40;;
52866;SDS011;38739;53.324;6.862;2023-01-01T01:18:36;34.25;;;17.88;;
52866;SDS011;38739;53.324;6.862;2023-01-01T01:21:02;35.75;;;17.38;;
52866;SDS011;38739;53.324;6.862;2023-01-01T01:23:29;32.08;;;17.05;;
52866;SDS011;38739;53.324;6.862;2023-01-01T01:26:04;36.83;;;21.02;;
52866;SDS011;38739;53.324;6.862;2023-01-01T01:28:34;31.80;;;19.70;;
52866;SDS011;38739;53.324;6.862;2023-01-01T01:31:01;39.53;;;22.45;;
52866;SDS011;38739;53.324;6.862;2023-01-01T01:33:27;41.25;;;23.65;;
52866;SDS011;38739;53.324;6.862;2023-01-01T01:35:52;54.10;;;31.25;;
52866;SDS011;38739;53.324;6.862;2023-01-01T01:38:18;46.20;;;26.60;;
52866;SDS011;38739;53.324;6.862;2023-01-01T01:40:44;43.58;;;26.23;;
52866;SDS011;38739;53.324;6.862;2023-01-01T01:43:24;42.88;;;26.27;;
52866;SDS011;38739;53.324;6.862;2023-01-01T01:46:10;48.22;;;27.67;;
52866;SDS011;38739;53.324;6.862;2023-01-01T01:48:41;40.75;;;26.90;;
52866;SDS011;38739;53.324;6.862;2023-01-01T01:51:10;41.97;;;26.67;;
52866;SDS011;38739;53.324;6.862;2023-01-01T01:53:40;48.40;;;31.63;;
52866;SDS011;38739;53.324;6.862;2023-01-01T01:56:14;57.22;;;34.40;;
52866;SDS011;38739;53.324;6.862;2023-01-01T01:58:44;49.08;;;31.95;;
52866;SDS011;38739;53.324;6.862;2023-01-01T02:01:10;49.80;;;30.20;;
52866;SDS011;38739;53.324;6.862;2023-01-01T02:03:37;49.83;;;33.22;;
52866;SDS011;38739;53.324;6.862;2023-01-01T02:06:07;51.20;;;32.15;;
52866;SDS011;38739;53.324;6.862;2023-01-01T02:08:34;58.78;;;37.25;;
52866;SDS011;38739;53.324;6.862;2023-01-01T02:11:00;52.85;;;34.55;;
52866;SDS011;38739;53.324;6.862;2023-01-01T02:13:26;55.67;;;37.75;;
52866;SDS011;38739;53.324;6.862;2023-01-01T02:18:47;59.40;;;38.33;;
52866;SDS011;38739;53.324;6.862;2023-01-01T02:27:03;66.53;;;41.03;;
52866;SDS011;38739;53.324;6.862;2023-01-01T02:29:49;67.07;;;41.90;;
52866;SDS011;38739;53.324;6.862;2023-01-01T02:34:56;66.65;;;43.58;;
52866;SDS011;38739;53.324;6.862;2023-01-01T02:40:13;68.70;;;43.55;;
52866;SDS011;38739;53.324;6.862;2023-01-01T02:42:40;61.90;;;41.85;;
52866;SDS011;38739;53.324;6.862;2023-01-01T02:45:06;66.47;;;39.80;;
52866;SDS011;38739;53.324;6.862;2023-01-01T02:47:33;56.55;;;39.03;;
52866;SDS011;38739;53.324;6.862;2023-01-01T02:50:04;58.88;;;39.38;;
52866;SDS011;38739;53.324;6.862;2023-01-01T02:53:39;61.45;;;39.97;;
52866;SDS011;38739;53.324;6.862;2023-01-01T03:10:27;47.70;;;29.85;;
52866;SDS011;38739;53.324;6.862;2023-01-01T03:13:46;52.17;;;29.90;;
52866;SDS011;38739;53.324;6.862;2023-01-01T03:16:04;48.63;;;28.88;;
52866;SDS011;38739;53.324;6.862;2023-01-01T03:21:15;46.80;;;27.25;;
52866;SDS011;38739;53.324;6.862;2023-01-01T03:23:47;47.92;;;27.27;;
52866;SDS011;38739;53.324;6.862;2023-01-01T03:26:18;44.25;;;29.08;;
52866;SDS011;38739;53.324;6.862;2023-01-01T03:28:52;49.20;;;29.63;;
52866;SDS011;38739;53.324;6.862;2023-01-01T03:31:22;51.35;;;30.23;;
52866;SDS011;38739;53.324;6.862;2023-01-01T03:33:51;43.38;;;26.45;;
52866;SDS011;38739;53.324;6.862;2023-01-01T03:36:29;43.15;;;25.83;;
52866;SDS011;38739;53.324;6.862;2023-01-01T03:39:07;46.03;;;24.45;;
52866;SDS011;38739;53.324;6.862;2023-01-01T03:45:09;35.15;;;20.00;;
52866;SDS011;38739;53.324;6.862;2023-01-01T03:47:41;39.75;;;21.55;;
52866;SDS011;38739;53.324;6.862;2023-01-01T03:50:07;42.70;;;22.13;;
52866;SDS011;38739;53.324;6.862;2023-01-01T03:55:31;31.85;;;18.02;;
52866;SDS011;38739;53.324;6.862;2023-01-01T04:00:39;99.70;;;17.52;;
52866;SDS011;38739;53.324;6.862;2023-01-01T04:03:21;28.65;;;14.98;;
52866;SDS011;38739;53.324;6.862;2023-01-01T04:05:49;26.42;;;17.20;;
52866;SDS011;38739;53.324;6.862;2023-01-01T04:08:15;30.33;;;18.88;;
52866;SDS011;38739;53.324;6.862;2023-01-01T04:10:42;37.05;;;22.38;;
52866;SDS011;38739;53.324;6.862;2023-01-01T04:13:11;25.77;;;17.30;;
52866;SDS011;38739;53.324;6.862;2023-01-01T04:15:36;31.25;;;18.77;;
52866;SDS011;38739;53.324;6.862;2023-01-01T04:18:02;36.13;;;24.55;;
52866;SDS011;38739;53.324;6.862;2023-01-01T04:20:28;30.35;;;16.38;;
52866;SDS011;38739;53.324;6.862;2023-01-01T04:22:58;26.73;;;15.10;;
52866;SDS011;38739;53.324;6.862;2023-01-01T04:25:25;23.38;;;15.60;;
52866;SDS011;38739;53.324;6.862;2023-01-01T04:27:51;17.52;;;10.30;;
52866;SDS011;38739;53.324;6.862;2023-01-01T04:30:17;16.42;;;9.27;;
52866;SDS011;38739;53.324;6.862;2023-01-01T04:32:43;16.70;;;9.50;;
52866;SDS011;38739;53.324;6.862;2023-01-01T04:35:09;16.60;;;8.55;;
52866;SDS011;38739;53.324;6.862;2023-01-01T04:37:37;16.52;;;7.10;;
52866;SDS011;38739;53.324;6.862;2023-01-01T04:40:03;15.48;;;7.70;;
52866;SDS011;38739;53.324;6.862;2023-01-01T04:42:29;12.68;;;5.22;;
52866;SDS011;38739;53.324;6.862;2023-01-01T04:44:55;19.63;;;6.97;;
52866;SDS011;38739;53.324;6.862;2023-01-01T04:47:21;10.45;;;4.88;;
52866;SDS011;38739;53.324;6.862;2023-01-01T04:49:46;16.00;;;4.63;;
52866;SDS011;38739;53.324;6.862;2023-01-01T04:52:12;16.08;;;4.78;;
52866;SDS011;38739;53.324;6.862;2023-01-01T04:54:38;15.68;;;4.63;;
52866;SDS011;38739;53.324;6.862;2023-01-01T04:57:03;15.60;;;4.70;;
52866;SDS011;38739;53.324;6.862;2023-01-01T04:59:29;16.15;;;5.20;;
52866;SDS011;38739;53.324;6.862;2023-01-01T05:01:55;22.90;;;6.40;;
52866;SDS011;38739;53.324;6.862;2023-01-01T05:04:21;23.20;;;5.72;;
52866;SDS011;38739;53.324;6.862;2023-01-01T05:06:47;18.23;;;5.30;;
52866;SDS011;38739;53.324;6.862;2023-01-01T05:09:13;48.25;;;8.38;;
52866;SDS011;38739;53.324;6.862;2023-01-01T05:11:38;17.23;;;5.90;;
52866;SDS011;38739;53.324;6.862;2023-01-01T05:14:04;21.30;;;6.55;;
52866;SDS011;38739;53.324;6.862;2023-01-01T05:16:32;20.52;;;7.25;;
52866;SDS011;38739;53.324;6.862;2023-01-01T05:18:59;25.17;;;7.32;;
52866;SDS011;38739;53.324;6.862;2023-01-01T05:21:30;18.27;;;7.28;;
52866;SDS011;38739;53.324;6.862;2023-01-01T05:23:57;18.88;;;6.70;;
52866;SDS011;38739;53.324;6.862;2023-01-01T05:26:26;17.88;;;6.57;;
52866;SDS011;38739;53.324;6.862;2023-01-01T05:28:54;17.30;;;6.20;;
52866;SDS011;38739;53.324;6.862;2023-01-01T05:31:22;20.23;;;5.65;;
52866;SDS011;38739;53.324;6.862;2023-01-01T05:33:49;20.55;;;5.70;;
52866;SDS011;38739;53.324;6.862;2023-01-01T05:36:18;21.35;;;5.78;;
52866;SDS011;38739;53.324;6.862;2023-01-01T05:38:48;19.77;;;4.95;;
52866;SDS011;38739;53.324;6.862;2023-01-01T05:41:15;15.32;;;4.72;;
52866;SDS011;38739;53.324;6.862;2023-01-01T05:43:42;15.55;;;4.43;;
52866;SDS011;38739;53.324;6.862;2023-01-01T05:46:26;12.32;;;4.00;;
52866;SDS011;38739;53.324;6.862;2023-01-01T05:48:52;15.35;;;4.05;;
52866;SDS011;38739;53.324;6.862;2023-01-01T05:51:23;17.08;;;4.30;;
52866;SDS011;38739;53.324;6.862;2023-01-01T05:53:50;12.65;;;3.90;;
52866;SDS011;38739;53.324;6.862;2023-01-01T05:56:20;15.75;;;3.90;;
52866;SDS011;38739;53.324;6.862;2023-01-01T05:58:46;13.70;;;3.90;;
52866;SDS011;38739;53.324;6.862;2023-01-01T06:01:16;10.88;;;3.67;;
52866;SDS011;38739;53.324;6.862;2023-01-01T06:03:53;11.70;;;3.60;;
52866;SDS011;38739;53.324;6.862;2023-01-01T06:06:21;15.57;;;3.70;;
52866;SDS011;38739;53.324;6.862;2023-01-01T06:08:56;14.80;;;4.28;;
52866;SDS011;38739;53.324;6.862;2023-01-01T06:11:24;9.68;;;3.90;;
52866;SDS011;38739;53.324;6.862;2023-01-01T06:13:50;15.20;;;3.17;;
52866;SDS011;38739;53.324;6.862;2023-01-01T06:16:17;9.23;;;3.15;;
52866;SDS011;38739;53.324;6.862;2023-01-01T06:18:42;8.10;;;2.88;;
52866;SDS011;38739;53.324;6.862;2023-01-01T06:21:19;9.52;;;2.75;;
52866;SDS011;38739;53.324;6.862;2023-01-01T06:23:48;6.88;;;2.38;;
52866;SDS011;38739;53.324;6.862;2023-01-01T06:26:15;10.45;;;2.55;;
52866;SDS011;38739;53.324;6.862;2023-01-01T06:28:45;9.93;;;2.40;;
52866;SDS011;38739;53.324;6.862;2023-01-01T06:31:12;11.13;;;2.40;;
52866;SDS011;38739;53.324;6.862;2023-01-01T06:33:39;9.85;;;1.83;;
52866;SDS011;38739;53.324;6.862;2023-01-01T06:36:06;9.02;;;1.95;;
52866;SDS011;38739;53.324;6.862;2023-01-01T06:38:34;9.02;;;1.70;;
52866;SDS011;38739;53.324;6.862;2023-01-01T06:41:03;8.32;;;2.00;;
52866;SDS011;38739;53.324;6.862;2023-01-01T06:43:31;8.10;;;1.92;;
52866;SDS011;38739;53.324;6.862;2023-01-01T06:45:59;10.60;;;2.25;;
52866;SDS011;38739;53.324;6.862;2023-01-01T06:48:33;10.60;;;1.80;;
52866;SDS011;38739;53.324;6.862;2023-01-01T06:51:04;6.57;;;1.75;;
52866;SDS011;38739;53.324;6.862;2023-01-01T06:53:31;10.23;;;1.88;;
52866;SDS011;38739;53.324;6.862;2023-01-01T06:55:57;10.82;;;1.83;;
52866;SDS011;38739;53.324;6.862;2023-01-01T06:58:23;13.43;;;2.00;;
52866;SDS011;38739;53.324;6.862;2023-01-01T07:00:48;8.77;;;2.05;;
52866;SDS011;38739;53.324;6.862;2023-01-01T07:03:14;13.70;;;2.15;;
52866;SDS011;38739;53.324;6.862;2023-01-01T07:05:39;11.38;;;2.50;;
52866;SDS011;38739;53.324;6.862;2023-01-01T07:08:05;13.85;;;2.15;;
52866;SDS011;38739;53.324;6.862;2023-01-01T07:10:31;7.93;;;1.90;;
52866;SDS011;38739;53.324;6.862;2023-01-01T07:12:56;8.38;;;1.90;;
52866;SDS011;38739;53.324;6.862;2023-01-01T07:15:22;8.43;;;1.90;;
52866;SDS011;38739;53.324;6.862;2023-01-01T07:17:48;13.45;;;1.90;;
52866;SDS011;38739;53.324;6.862;2023-01-01T07:20:13;8.50;;;2.10;;
52866;SDS011;38739;53.324;6.862;2023-01-01T07:22:39;12.30;;;1.75;;
52866;SDS011;38739;53.324;6.862;2023-01-01T07:25:05;9.52;;;1.80;;
52866;SDS011;38739;53.324;6.862;2023-01-01T07:27:31;10.48;;;1.83;;
52866;SDS011;38739;53.324;6.862;2023-01-01T07:29:57;12.20;;;2.03;;
52866;SDS011;38739;53.324;6.862;2023-01-01T07:32:23;12.23;;;2.28;;
52866;SDS011;38739;53.324;6.862;2023-01-01T07:34:49;14.43;;;2.13;;
52866;SDS011;38739;53.324;6.862;2023-01-01T07:37:14;10.45;;;1.95;;
52866;SDS011;38739;53.324;6.862;2023-01-01T07:39:40;12.75;;;2.63;;
52866;SDS011;38739;53.324;6.862;2023-01-01T07:42:06;17.13;;;2.92;;
52866;SDS011;38739;53.324;6.862;2023-01-01T07:44:31;14.50;;;2.60;;
52866;SDS011;38739;53.324;6.862;2023-01-01T07:47:03;17.90;;;2.33;;
52866;SDS011;38739;53.324;6.862;2023-01-01T07:49:37;18.45;;;2.22;;
52866;SDS011;38739;53.324;6.862;2023-01-01T07:52:03;16.45;;;2.83;;
52866;SDS011;38739;53.324;6.862;2023-01-01T07:54:29;13.50;;;2.17;;
52866;SDS011;38739;53.324;6.862;2023-01-01T07:56:54;15.88;;;2.67;;
52866;SDS011;38739;53.324;6.862;2023-01-01T07:59:20;15.32;;;2.33;;
52866;SDS011;38739;53.324;6.862;2023-01-01T08:01:45;18.42;;;2.95;;
52866;SDS011;38739;53.324;6.862;2023-01-01T08:04:11;18.27;;;2.90;;
52866;SDS011;38739;53.324;6.862;2023-01-01T08:06:37;17.15;;;2.55;;
52866;SDS011;38739;53.324;6.862;2023-01-01T08:09:02;17.83;;;2.70;;
52866;SDS011;38739;53.324;6.862;2023-01-01T08:11:28;24.52;;;3.72;;
52866;SDS011;38739;53.324;6.862;2023-01-01T08:13:54;15.80;;;2.35;;
52866;SDS011;38739;53.324;6.862;2023-01-01T08:16:20;19.48;;;2.97;;
52866;SDS011;38739;53.324;6.862;2023-01-01T08:18:45;20.25;;;3.03;;
52866;SDS011;38739;53.324;6.862;2023-01-01T08:21:11;19.08;;;3.42;;
52866;SDS011;38739;53.324;6.862;2023-01-01T08:23:37;20.48;;;2.47;;
52866;SDS011;38739;53.324;6.862;2023-01-01T08:26:02;18.40;;;2.80;;
52866;SDS011;38739;53.324;6.862;2023-01-01T08:28:28;52.40;;;4.38;;
52866;SDS011;38739;53.324;6.862;2023-01-01T08:30:54;24.30;;;3.30;;
52866;SDS011;38739;53.324;6.862;2023-01-01T08:33:20;19.98;;;2.63;;
52866;SDS011;38739;53.324;6.862;2023-01-01T08:35:47;22.20;;;3.33;;
52866;SDS011;38739;53.324;6.862;2023-01-01T08:38:13;20.85;;;3.40;;
52866;SDS011;38739;53.324;6.862;2023-01-01T08:40:39;19.58;;;3.00;;
52866;SDS011;38739;53.324;6.862;2023-01-01T08:43:04;15.82;;;2.47;;
52866;SDS011;38739;53.324;6.862;2023-01-01T08:45:30;19.38;;;2.83;;
52866;SDS011;38739;53.324;6.862;2023-01-01T08:47:56;23.02;;;3.42;;
52866;SDS011;38739;53.324;6.862;2023-01-01T08:50:22;24.58;;;3.40;;
52866;SDS011;38739;53.324;6.862;2023-01-01T08:52:47;24.20;;;3.35;;
52866;SDS011;38739;53.324;6.862;2023-01-01T08:55:13;22.55;;;3.25;;
52866;SDS011;38739;53.324;6.862;2023-01-01T08:57:39;24.48;;;3.58;;
52866;SDS011;38739;53.324;6.862;2023-01-01T09:00:05;23.15;;;3.75;;
52866;SDS011;38739;53.324;6.862;2023-01-01T09:02:33;21.80;;;3.10;;
52866;SDS011;38739;53.324;6.862;2023-01-01T09:04:59;22.85;;;3.63;;
52866;SDS011;38739;53.324;6.862;2023-01-01T09:07:25;16.95;;;2.70;;
52866;SDS011;38739;53.324;6.862;2023-01-01T09:09:50;24.88;;;3.88;;
52866;SDS011;38739;53.324;6.862;2023-01-01T09:12:16;23.73;;;3.30;;
52866;SDS011;38739;53.324;6.862;2023-01-01T09:14:42;23.38;;;3.45;;
52866;SDS011;38739;53.324;6.862;2023-01-01T09:17:10;24.55;;;4.03;;
52866;SDS011;38739;53.324;6.862;2023-01-01T09:19:36;22.30;;;3.63;;
52866;SDS011;38739;53.324;6.862;2023-01-01T09:22:02;17.02;;;3.03;;
52866;SDS011;38739;53.324;6.862;2023-01-01T09:24:27;23.83;;;3.63;;
52866;SDS011;38739;53.324;6.862;2023-01-01T09:26:53;26.95;;;4.05;;
52866;SDS011;38739;53.324;6.862;2023-01-01T09:29:19;27.25;;;4.05;;
52866;SDS011;38739;53.324;6.862;2023-01-01T09:31:46;27.52;;;3.78;;
52866;SDS011;38739;53.324;6.862;2023-01-01T09:34:12;24.52;;;4.15;;
52866;SDS011;38739;53.324;6.862;2023-01-01T09:36:38;28.95;;;4.00;;
52866;SDS011;38739;53.324;6.862;2023-01-01T09:39:04;31.05;;;4.90;;
52866;SDS011;38739;53.324;6.862;2023-01-01T09:47:18;18.00;;;3.03;;
52866;SDS011;38739;53.324;6.862;2023-01-01T09:49:55;20.05;;;3.75;;
52866;SDS011;38739;53.324;6.862;2023-01-01T09:52:34;22.83;;;3.10;;
52866;SDS011;38739;53.324;6.862;2023-01-01T09:55:27;21.05;;;3.45;;
52866;SDS011;38739;53.324;6.862;2023-01-01T09:57:58;20.30;;;3.75;;
52866;SDS011;38739;53.324;6.862;2023-01-01T10:00:24;19.98;;;3.33;;
52866;SDS011;38739;53.324;6.862;2023-01-01T10:05:43;20.92;;;3.80;;
52866;SDS011;38739;53.324;6.862;2023-01-01T10:14:06;25.02;;;3.35;;
52866;SDS011;38739;53.324;6.862;2023-01-01T10:16:55;25.70;;;3.70;;
52866;SDS011;38739;53.324;6.862;2023-01-01T10:19:25;24.85;;;3.85;;
52866;SDS011;38739;53.324;6.862;2023-01-01T10:22:03;19.65;;;3.65;;
52866;SDS011;38739;53.324;6.862;2023-01-01T10:24:47;25.67;;;3.97;;
52866;SDS011;38739;53.324;6.862;2023-01-01T10:27:38;19.88;;;3.83;;
52866;SDS011;38739;53.324;6.862;2023-01-01T10:30:12;24.38;;;3.80;;
52866;SDS011;38739;53.324;6.862;2023-01-01T10:32:45;20.98;;;4.05;;
52866;SDS011;38739;53.324;6.862;2023-01-01T10:35:14;23.33;;;3.97;;
52866;SDS011;38739;53.324;6.862;2023-01-01T10:37:44;26.20;;;3.92;;
52866;SDS011;38739;53.324;6.862;2023-01-01T10:43:02;19.77;;;2.90;;
52866;SDS011;38739;53.324;6.862;2023-01-01T10:48:16;25.58;;;3.65;;
52866;SDS011;38739;53.324;6.862;2023-01-01T10:50:56;22.60;;;3.28;;
52866;SDS011;38739;53.324;6.862;2023-01-01T10:53:38;24.35;;;3.42;;
52866;SDS011;38739;53.324;6.862;2023-01-01T10:56:09;23.50;;;3.47;;
52866;SDS011;38739;53.324;6.862;2023-01-01T10:58:53;21.42;;;3.58;;
52866;SDS011;38739;53.324;6.862;2023-01-01T11:01:24;21.58;;;3.60;;
52866;SDS011;38739;53.324;6.862;2023-01-01T11:06:21;23.63;;;3.85;;
52866;SDS011;38739;53.324;6.862;2023-01-01T11:08:55;20.45;;;4.05;;
52866;SDS011;38739;53.324;6.862;2023-01-01T11:11:27;21.35;;;3.92;;
52866;SDS011;38739;53.324;6.862;2023-01-01T11:14:26;20.05;;;3.47;;
52866;SDS011;38739;53.324;6.862;2023-01-01T11:16:54;20.60;;;3.92;;
52866;SDS011;38739;53.324;6.862;2023-01-01T11:19:26;18.95;;;3.20;;
52866;SDS011;38739;53.324;6.862;2023-01-01T11:22:04;13.05;;;3.30;;
52866;SDS011;38739;53.324;6.862;2023-01-01T11:24:31;18.77;;;3.15;;
52866;SDS011;38739;53.324;6.862;2023-01-01T11:32:44;20.00;;;3.47;;
52866;SDS011;38739;53.324;6.862;2023-01-01T11:35:16;18.98;;;2.72;;
52866;SDS011;38739;53.324;6.862;2023-01-01T11:37:45;20.42;;;2.88;;
52866;SDS011;38739;53.324;6.862;2023-01-01T11:40:32;16.52;;;2.95;;
52866;SDS011;38739;53.324;6.862;2023-01-01T11:43:02;20.20;;;3.15;;
52866;SDS011;38739;53.324;6.862;2023-01-01T11:45:33;17.40;;;2.88;;
52866;SDS011;38739;53.324;6.862;2023-01-01T11:48:10;18.65;;;3.00;;
52866;SDS011;38739;53.324;6.862;2023-01-01T11:50:52;15.10;;;2.47;;
52866;SDS011;38739;53.324;6.862;2023-01-01T11:56:08;13.95;;;2.38;;
52866;SDS011;38739;53.324;6.862;2023-01-01T12:01:12;15.45;;;2.72;;
52866;SDS011;38739;53.324;6.862;2023-01-01T12:06:24;21.15;;;3.30;;
52866;SDS011;38739;53.324;6.862;2023-01-01T12:09:05;19.73;;;3.13;;
52866;SDS011;38739;53.324;6.862;2023-01-01T12:11:36;10.05;;;2.15;;
52866;SDS011;38739;53.324;6.862;2023-01-01T12:14:21;17.27;;;2.63;;
52866;SDS011;38739;53.324;6.862;2023-01-01T12:17:15;17.40;;;2.28;;
52866;SDS011;38739;53.324;6.862;2023-01-01T12:22:24;14.57;;;2.75;;
52866;SDS011;38739;53.324;6.862;2023-01-01T12:24:50;13.73;;;2.38;;
52866;SDS011;38739;53.324;6.862;2023-01-01T12:27:41;11.20;;;2.38;;
52866;SDS011;38739;53.324;6.862;2023-01-01T12:33:11;17.60;;;2.65;;
52866;SDS011;38739;53.324;6.862;2023-01-01T12:50:10;19.00;;;2.65;;
52866;SDS011;38739;53.324;6.862;2023-01-01T12:58:13;18.10;;;2.95;;
52866;SDS011;38739;53.324;6.862;2023-01-01T13:00:57;16.25;;;3.05;;
52866;SDS011;38739;53.324;6.862;2023-01-01T13:03:27;15.90;;;2.40;;
52866;SDS011;38739;53.324;6.862;2023-01-01T13:05:56;18.58;;;3.03;;
52866;SDS011;38739;53.324;6.862;2023-01-01T13:08:23;20.58;;;2.95;;
52866;SDS011;38739;53.324;6.862;2023-01-01T13:10:50;18.05;;;3.22;;
52866;SDS011;38739;53.324;6.862;2023-01-01T13:13:18;18.63;;;3.55;;
52866;SDS011;38739;53.324;6.862;2023-01-01T13:15:48;15.40;;;3.33;;
52866;SDS011;38739;53.324;6.862;2023-01-01T13:18:19;18.75;;;2.95;;
52866;SDS011;38739;53.324;6.862;2023-01-01T13:45:26;15.27;;;2.63;;
52866;SDS011;38739;53.324;6.862;2023-01-01T13:58:45;18.90;;;3.17;;
52866;SDS011;38739;53.324;6.862;2023-01-01T14:01:39;17.40;;;2.50;;
52866;SDS011;38739;53.324;6.862;2023-01-01T14:04:06;18.00;;;2.72;;
52866;SDS011;38739;53.324;6.862;2023-01-01T14:06:54;21.88;;;3.25;;
52866;SDS011;38739;53.324;6.862;2023-01-01T14:09:24;13.65;;;3.35;;
52866;SDS011;38739;53.324;6.862;2023-01-01T14:11:50;16.85;;;3.15;;
52866;SDS011;38739;53.324;6.862;2023-01-01T14:14:23;19.20;;;3.38;;
52866;SDS011;38739;53.324;6.862;2023-01-01T14:16:52;13.88;;;2.22;;
52866;SDS011;38739;53.324;6.862;2023-01-01T14:19:26;15.15;;;2.83;;
52866;SDS011;38739;53.324;6.862;2023-01-01T14:21:53;16.60;;;2.88;;
52866;SDS011;38739;53.324;6.862;2023-01-01T14:24:19;18.90;;;3.78;;
52866;SDS011;38739;53.324;6.862;2023-01-01T14:26:47;17.13;;;3.17;;
52866;SDS011;38739;53.324;6.862;2023-01-01T14:29:16;14.95;;;3.22;;
52866;SDS011;38739;53.324;6.862;2023-01-01T14:32:11;17.88;;;3.40;;
52866;SDS011;38739;53.324;6.862;2023-01-01T14:34:39;20.88;;;3.33;;
52866;SDS011;38739;53.324;6.862;2023-01-01T14:37:05;17.95;;;2.88;;
52866;SDS011;38739;53.324;6.862;2023-01-01T14:39:46;16.27;;;3.20;;
52866;SDS011;38739;53.324;6.862;2023-01-01T14:43:05;15.13;;;3.28;;
52866;SDS011;38739;53.324;6.862;2023-01-01T14:45:36;15.43;;;2.92;;
52866;SDS011;38739;53.324;6.862;2023-01-01T14:48:10;20.70;;;3.20;;
52866;SDS011;38739;53.324;6.862;2023-01-01T14:50:42;16.10;;;2.83;;
52866;SDS011;38739;53.324;6.862;2023-01-01T14:53:14;17.75;;;3.03;;
52866;SDS011;38739;53.324;6.862;2023-01-01T14:55:44;16.50;;;2.78;;
52866;SDS011;38739;53.324;6.862;2023-01-01T14:58:19;26.92;;;3.47;;
52866;SDS011;38739;53.324;6.862;2023-01-01T15:00:48;15.90;;;3.20;;
52866;SDS011;38739;53.324;6.862;2023-01-01T15:03:16;16.38;;;2.95;;
52866;SDS011;38739;53.324;6.862;2023-01-01T15:05:44;21.65;;;3.70;;
52866;SDS011;38739;53.324;6.862;2023-01-01T15:08:21;16.17;;;3.25;;
52866;SDS011;38739;53.324;6.862;2023-01-01T15:10:49;12.15;;;2.55;;
52866;SDS011;38739;53.324;6.862;2023-01-01T15:13:16;19.65;;;3.13;;
52866;SDS011;38739;53.324;6.862;2023-01-01T15:15:45;16.02;;;2.90;;
52866;SDS011;38739;53.324;6.862;2023-01-01T15:18:46;16.60;;;2.88;;
52866;SDS011;38739;53.324;6.862;2023-01-01T15:26:41;24.75;;;3.67;;
52866;SDS011;38739;53.324;6.862;2023-01-01T15:29:16;18.98;;;2.97;;
52866;SDS011;38739;53.324;6.862;2023-01-01T15:32:03;22.75;;;3.45;;
52866;SDS011;38739;53.324;6.862;2023-01-01T15:34:40;19.00;;;3.17;;
52866;SDS011;38739;53.324;6.862;2023-01-01T15:37:15;21.02;;;3.38;;
52866;SDS011;38739;53.324;6.862;2023-01-01T15:39:54;17.80;;;3.20;;
52866;SDS011;38739;53.324;6.862;2023-01-01T15:47:42;22.50;;;5.15;;
52866;SDS011;38739;53.324;6.862;2023-01-01T15:52:46;20.75;;;3.78;;
52866;SDS011;38739;53.324;6.862;2023-01-01T15:55:15;16.98;;;3.80;;
52866;SDS011;38739;53.324;6.862;2023-01-01T15:57:48;18.00;;;3.85;;
52866;SDS011;38739;53.324;6.862;2023-01-01T16:00:22;20.30;;;4.57;;
52866;SDS011;38739;53.324;6.862;2023-01-01T16:02:51;18.05;;;4.35;;
52866;SDS011;38739;53.324;6.862;2023-01-01T16:05:24;20.52;;;4.70;;
52866;SDS011;38739;53.324;6.862;2023-01-01T16:08:04;17.08;;;4.50;;
52866;SDS011;38739;53.324;6.862;2023-01-01T16:10:30;18.13;;;4.18;;
52866;SDS011;38739;53.324;6.862;2023-01-01T16:12:56;19.10;;;4.45;;
52866;SDS011;38739;53.324;6.862;2023-01-01T16:15:23;17.88;;;4.22;;
52866;SDS011;38739;53.324;6.862;2023-01-01T16:17:49;21.60;;;4.97;;
52866;SDS011;38739;53.324;6.862;2023-01-01T16:20:16;21.88;;;5.45;;
52866;SDS011;38739;53.324;6.862;2023-01-01T16:22:46;17.92;;;5.07;;
52866;SDS011;38739;53.324;6.862;2023-01-01T16:27:39;15.07;;;3.90;;
52866;SDS011;38739;53.324;6.862;2023-01-01T16:30:05;18.25;;;3.92;;
52866;SDS011;38739;53.324;6.862;2023-01-01T16:32:31;17.67;;;4.35;;
52866;SDS011;38739;53.324;6.862;2023-01-01T16:34:57;17.45;;;4.63;;
52866;SDS011;38739;53.324;6.862;2023-01-01T16:37:22;21.77;;;5.22;;
52866;SDS011;38739;53.324;6.862;2023-01-01T16:39:48;17.58;;;4.97;;
52866;SDS011;38739;53.324;6.862;2023-01-01T16:42:14;27.52;;;5.38;;
52866;SDS011;38739;53.324;6.862;2023-01-01T16:44:40;20.92;;;5.68;;
52866;SDS011;38739;53.324;6.862;2023-01-01T16:47:06;19.70;;;5.65;;
52866;SDS011;38739;53.324;6.862;2023-01-01T16:49:32;19.80;;;4.60;;
52866;SDS011;38739;53.324;6.862;2023-01-01T16:51:58;20.02;;;5.10;;
52866;SDS011;38739;53.324;6.862;2023-01-01T16:54:23;18.00;;;5.40;;
52866;SDS011;38739;53.324;6.862;2023-01-01T16:56:49;17.50;;;4.90;;
52866;SDS011;38739;53.324;6.862;2023-01-01T16:59:15;21.35;;;4.75;;
52866;SDS011;38739;53.324;6.862;2023-01-01T17:01:41;17.83;;;4.68;;
52866;SDS011;38739;53.324;6.862;2023-01-01T17:04:07;20.20;;;5.25;;
52866;SDS011;38739;53.324;6.862;2023-01-01T17:06:33;18.95;;;4.80;;
52866;SDS011;38739;53.324;6.862;2023-01-01T17:09:01;25.63;;;7.97;;
52866;SDS011;38739;53.324;6.862;2023-01-01T17:11:27;20.77;;;6.50;;
52866;SDS011;38739;53.324;6.862;2023-01-01T17:13:53;23.80;;;5.68;;
52866;SDS011;38739;53.324;6.862;2023-01-01T17:16:18;17.75;;;4.85;;
52866;SDS011;38739;53.324;6.862;2023-01-01T17:18:48;23.52;;;5.07;;
52866;SDS011;38739;53.324;6.862;2023-01-01T17:21:15;19.15;;;5.20;;